sensor_id;sensor_type;location;lat;lon;timestamp;temperature;humidity
19968;DHT22;10145;49.152;9.282;2022-07-23T04:01:15;22.10;95.40
19968;DHT22;10145;49.152;9.282;2022-07-23T04:03:41;22.00;95.70
19968;DHT22;10145;49.152;9.282;2022-07-23T04:06:07;22.00;95.50
19968;DHT22;10145;49.152;9.282;2022-07-23T04:08:32;22.00;95.30
19968;DHT22;10145;49.152;9.282;2022-07-23T04:10:58;22.00;95.30
19968;DHT22;10145;49.152;9.282;2022-07-23T04:13:23;21.90;95.20
19968;DHT22;10145;49.152;9.282;2022-07-23T04:15:49;22.00;95.10
19968;DHT22;10145;49.152;9.282;2022-07-23T04:18:16;22.00;95.10
19968;DHT22;10145;49.152;9.282;2022-07-23T04:20:43;22.00;95.20
19968;DHT22;10145;49.152;9.282;2022-07-23T04:23:09;22.00;95.30
19968;DHT22;10145;49.152;9.282;2022-07-23T04:25:35;21.90;95.30
19968;DHT22;10145;49.152;9.282;2022-07-23T04:28:00;22.00;95.40
19968;DHT22;10145;49.152;9.282;2022-07-23T04:30:26;21.90;95.50
19968;DHT22;10145;49.152;9.282;2022-07-23T04:32:51;21.70;95.60
19968;DHT22;10145;49.152;9.282;2022-07-23T04:35:17;21.90;95.70
19968;DHT22;10145;49.152;9.282;2022-07-23T04:37:43;21.80;95.80
19968;DHT22;10145;49.152;9.282;2022-07-23T04:40:09;21.80;95.70
19968;DHT22;10145;49.152;9.282;2022-07-23T04:42:34;21.80;95.80
19968;DHT22;10145;49.152;9.282;2022-07-23T04:45:00;22.00;95.70
19968;DHT22;10145;49.152;9.282;2022-07-23T04:47:25;22.10;95.60
19968;DHT22;10145;49.152;9.282;2022-07-23T04:49:51;22.10;95.40
19968;DHT22;10145;49.152;9.282;2022-07-23T04:52:16;22.20;95.30
19968;DHT22;10145;49.152;9.282;2022-07-23T04:54:42;22.20;95.20
19968;DHT22;10145;49.152;9.282;2022-07-23T04:57:07;22.30;95.30
19968;DHT22;10145;49.152;9.282;2022-07-23T04:59:33;22.20;95.10
19968;DHT22;10145;49.152;9.282;2022-07-23T05:01:58;22.10;95.20
19968;DHT22;10145;49.152;9.282;2022-07-23T05:04:24;22.20;95.20
19968;DHT22;10145;49.152;9.282;2022-07-23T05:06:49;22.10;95.20
19968;DHT22;10145;49.152;9.282;2022-07-23T05:09:15;22.20;95.30
19968;DHT22;10145;49.152;9.282;2022-07-23T05:11:40;21.80;95.20
19968;DHT22;10145;49.152;9.282;2022-07-23T05:14:06;22.10;95.30
19968;DHT22;10145;49.152;9.282;2022-07-23T05:16:32;22.20;95.30
19968;DHT22;10145;49.152;9.282;2022-07-23T05:18:57;22.00;95.80
19968;DHT22;10145;49.152;9.282;2022-07-23T05:21:23;22.00;96.50
19968;DHT22;10145;49.152;9.282;2022-07-23T05:23:48;21.80;96.60
19968;DHT22;10145;49.152;9.282;2022-07-23T05:26:14;21.80;96.60
19968;DHT22;10145;49.152;9.282;2022-07-23T05:28:39;21.90;97.40
19968;DHT22;10145;49.152;9.282;2022-07-23T05:31:05;21.80;96.90
19968;DHT22;10145;49.152;9.282;2022-07-23T05:33:31;21.90;97.20
19968;DHT22;10145;49.152;9.282;2022-07-23T05:36:01;21.90;97.00
19968;DHT22;10145;49.152;9.282;2022-07-23T05:38:27;21.90;96.80
19968;DHT22;10145;49.152;9.282;2022-07-23T05:40:53;22.10;96.40
19968;DHT22;10145;49.152;9.282;2022-07-23T05:43:18;22.00;96.30
19968;DHT22;10145;49.152;9.282;2022-07-23T05:45:44;22.00;96.10
19968;DHT22;10145;49.152;9.282;2022-07-23T05:48:09;22.00;95.90
19968;DHT22;10145;49.152;9.282;2022-07-23T05:50:35;22.00;95.70
19968;DHT22;10145;49.152;9.282;2022-07-23T05:53:00;22.10;96.00
19968;DHT22;10145;49.152;9.282;2022-07-23T05:55:26;21.90;96.10
19968;DHT22;10145;49.152;9.282;2022-07-23T05:57:57;21.90;96.40
19968;DHT22;10145;49.152;9.282;2022-07-23T06:00:24;21.80;97.10
19968;DHT22;10145;49.152;9.282;2022-07-23T06:02:49;21.40;98.90
19968;DHT22;10145;49.152;9.282;2022-07-23T06:05:15;21.10;99.90
19968;DHT22;10145;49.152;9.282;2022-07-23T06:07:40;20.80;99.90
19968;DHT22;10145;49.152;9.282;2022-07-23T06:10:06;20.40;99.90
19968;DHT22;10145;49.152;9.282;2022-07-23T06:12:32;20.00;99.90
19968;DHT22;10145;49.152;9.282;2022-07-23T06:14:58;19.60;99.90
19968;DHT22;10145;49.152;9.282;2022-07-23T06:17:25;19.30;99.90
19968;DHT22;10145;49.152;9.282;2022-07-23T06:19:50;19.10;99.90
19968;DHT22;10145;49.152;9.282;2022-07-23T06:22:16;19.10;99.90
19968;DHT22;10145;49.152;9.282;2022-07-23T06:24:41;19.00;99.90
19968;DHT22;10145;49.152;9.282;2022-07-23T06:27:07;19.10;99.90
19968;DHT22;10145;49.152;9.282;2022-07-23T06:29:32;19.20;99.90
19968;DHT22;10145;49.152;9.282;2022-07-23T06:31:58;19.20;99.90
19968;DHT22;10145;49.152;9.282;2022-07-23T06:34:23;19.20;99.90
19968;DHT22;10145;49.152;9.282;2022-07-23T06:36:49;19.40;99.90
19968;DHT22;10145;49.152;9.282;2022-07-23T06:39:15;19.40;99.90
19968;DHT22;10145;49.152;9.282;2022-07-23T06:41:41;19.50;99.90
19968;DHT22;10145;49.152;9.282;2022-07-23T06:44:07;19.60;99.90
19968;DHT22;10145;49.152;9.282;2022-07-23T06:46:32;19.70;99.90
19968;DHT22;10145;49.152;9.282;2022-07-23T06:48:58;19.70;99.90
19968;DHT22;10145;49.152;9.282;2022-07-23T06:51:24;19.80;99.90
19968;DHT22;10145;49.152;9.282;2022-07-23T06:53:50;19.80;99.90
19968;DHT22;10145;49.152;9.282;2022-07-23T06:56:15;19.70;99.90
19968;DHT22;10145;49.152;9.282;2022-07-23T06:58:41;19.70;99.90
19968;DHT22;10145;49.152;9.282;2022-07-23T07:01:06;19.70;99.90
19968;DHT22;10145;49.152;9.282;2022-07-23T07:03:32;19.60;99.90
19968;DHT22;10145;49.152;9.282;2022-07-23T07:05:58;19.50;99.90
19968;DHT22;10145;49.152;9.282;2022-07-23T07:08:23;19.40;99.90
19968;DHT22;10145;49.152;9.282;2022-07-23T07:10:49;19.20;99.90
19968;DHT22;10145;49.152;9.282;2022-07-23T07:13:15;19.20;99.90
19968;DHT22;10145;49.152;9.282;2022-07-23T07:15:43;19.10;99.90
19968;DHT22;10145;49.152;9.282;2022-07-23T07:18:09;19.00;99.90
19968;DHT22;10145;49.152;9.282;2022-07-23T07:20:34;19.10;99.90
19968;DHT22;10145;49.152;9.282;2022-07-23T07:23:00;19.00;99.90
19968;DHT22;10145;49.152;9.282;2022-07-23T07:25:25;19.00;99.90
19968;DHT22;10145;49.152;9.282;2022-07-23T07:27:51;18.90;99.90
19968;DHT22;10145;49.152;9.282;2022-07-23T07:30:17;18.90;99.90
19968;DHT22;10145;49.152;9.282;2022-07-23T07:32:42;18.80;99.90
19968;DHT22;10145;49.152;9.282;2022-07-23T07:35:09;18.90;99.90
19968;DHT22;10145;49.152;9.282;2022-07-23T07:37:34;19.00;99.90
19968;DHT22;10145;49.152;9.282;2022-07-23T07:40:00;19.00;99.90
19968;DHT22;10145;49.152;9.282;2022-07-23T07:42:26;19.10;99.90
19968;DHT22;10145;49.152;9.282;2022-07-23T07:44:51;19.30;99.90
19968;DHT22;10145;49.152;9.282;2022-07-23T07:47:17;19.40;99.90
19968;DHT22;10145;49.152;9.282;2022-07-23T07:49:42;19.30;99.90
19968;DHT22;10145;49.152;9.282;2022-07-23T07:52:08;19.40;99.90
19968;DHT22;10145;49.152;9.282;2022-07-23T07:54:34;19.50;99.90
19968;DHT22;10145;49.152;9.282;2022-07-23T07:57:00;19.80;99.90
19968;DHT22;10145;49.152;9.282;2022-07-23T07:59:26;19.90;99.90
19968;DHT22;10145;49.152;9.282;2022-07-23T08:01:51;20.10;99.90
19968;DHT22;10145;49.152;9.282;2022-07-23T08:04:17;20.30;99.90
19968;DHT22;10145;49.152;9.282;2022-07-23T08:06:43;20.30;99.90
19968;DHT22;10145;49.152;9.282;2022-07-23T08:09:11;20.40;99.90
19968;DHT22;10145;49.152;9.282;2022-07-23T08:11:36;20.40;99.90
19968;DHT22;10145;49.152;9.282;2022-07-23T08:14:02;20.50;99.90
19968;DHT22;10145;49.152;9.282;2022-07-23T08:16:28;20.60;99.90
19968;DHT22;10145;49.152;9.282;2022-07-23T08:18:53;20.70;99.90
19968;DHT22;10145;49.152;9.282;2022-07-23T08:21:19;20.70;99.90
19968;DHT22;10145;49.152;9.282;2022-07-23T08:23:45;20.30;99.90
19968;DHT22;10145;49.152;9.282;2022-07-23T08:26:10;20.30;99.90
19968;DHT22;10145;49.152;9.282;2022-07-23T08:28:36;20.20;99.90
19968;DHT22;10145;49.152;9.282;2022-07-23T08:31:02;20.20;99.90
19968;DHT22;10145;49.152;9.282;2022-07-23T08:33:28;20.20;99.90
19968;DHT22;10145;49.152;9.282;2022-07-23T08:35:53;20.30;99.90
19968;DHT22;10145;49.152;9.282;2022-07-23T08:38:21;20.40;99.90
19968;DHT22;10145;49.152;9.282;2022-07-23T08:40:49;20.50;99.90
19968;DHT22;10145;49.152;9.282;2022-07-23T08:43:18;20.70;99.90
19968;DHT22;10145;49.152;9.282;2022-07-23T08:45:46;20.50;99.90
19968;DHT22;10145;49.152;9.282;2022-07-23T08:48:24;20.70;99.90
19968;DHT22;10145;49.152;9.282;2022-07-23T08:50:58;20.60;99.90
19968;DHT22;10145;49.152;9.282;2022-07-23T08:53:25;20.70;99.90
19968;DHT22;10145;49.152;9.282;2022-07-23T08:55:53;20.70;99.90
19968;DHT22;10145;49.152;9.282;2022-07-23T08:58:19;20.90;99.90
19968;DHT22;10145;49.152;9.282;2022-07-23T09:00:46;21.10;99.90
19968;DHT22;10145;49.152;9.282;2022-07-23T09:03:28;21.20;99.90
19968;DHT22;10145;49.152;9.282;2022-07-23T09:05:55;21.50;99.90
19968;DHT22;10145;49.152;9.282;2022-07-23T09:08:24;21.70;99.90
19968;DHT22;10145;49.152;9.282;2022-07-23T09:10:56;22.10;99.90
19968;DHT22;10145;49.152;9.282;2022-07-23T09:13:48;22.60;99.90
19968;DHT22;10145;49.152;9.282;2022-07-23T09:16:28;22.90;99.90
19968;DHT22;10145;49.152;9.282;2022-07-23T09:18:57;23.10;99.90
19968;DHT22;10145;49.152;9.282;2022-07-23T09:24:01;22.50;99.90
19968;DHT22;10145;49.152;9.282;2022-07-23T09:26:40;22.40;99.90
19968;DHT22;10145;49.152;9.282;2022-07-23T09:29:10;22.20;99.90
19968;DHT22;10145;49.152;9.282;2022-07-23T09:34:36;22.20;99.90
19968;DHT22;10145;49.152;9.282;2022-07-23T09:37:16;22.20;99.90
19968;DHT22;10145;49.152;9.282;2022-07-23T09:39:43;22.00;99.90
19968;DHT22;10145;49.152;9.282;2022-07-23T09:42:14;22.20;99.90
19968;DHT22;10145;49.152;9.282;2022-07-23T09:44:45;22.20;99.90
19968;DHT22;10145;49.152;9.282;2022-07-23T09:47:11;22.40;99.90
19968;DHT22;10145;49.152;9.282;2022-07-23T09:49:36;22.80;99.90
19968;DHT22;10145;49.152;9.282;2022-07-23T09:52:03;22.90;99.90
19968;DHT22;10145;49.152;9.282;2022-07-23T09:54:34;22.90;99.90
19968;DHT22;10145;49.152;9.282;2022-07-23T09:59:33;23.50;99.90
19968;DHT22;10145;49.152;9.282;2022-07-23T10:01:59;23.70;99.90
19968;DHT22;10145;49.152;9.282;2022-07-23T10:04:27;23.60;99.90
19968;DHT22;10145;49.152;9.282;2022-07-23T10:06:56;23.60;99.90
19968;DHT22;10145;49.152;9.282;2022-07-23T10:09:33;23.70;99.90
19968;DHT22;10145;49.152;9.282;2022-07-23T10:12:02;24.00;99.90
19968;DHT22;10145;49.152;9.282;2022-07-23T10:14:38;24.20;99.90
19968;DHT22;10145;49.152;9.282;2022-07-23T10:17:04;24.50;99.90
19968;DHT22;10145;49.152;9.282;2022-07-23T10:19:31;24.50;99.90
19968;DHT22;10145;49.152;9.282;2022-07-23T10:23:14;24.90;99.90
19968;DHT22;10145;49.152;9.282;2022-07-23T10:33:45;25.20;99.90
19968;DHT22;10145;49.152;9.282;2022-07-23T10:36:32;25.50;99.90
19968;DHT22;10145;49.152;9.282;2022-07-23T10:39:05;25.50;99.90
19968;DHT22;10145;49.152;9.282;2022-07-23T10:41:42;26.10;99.90
19968;DHT22;10145;49.152;9.282;2022-07-23T10:44:16;26.20;99.90
19968;DHT22;10145;49.152;9.282;2022-07-23T10:46:56;26.10;99.90
19968;DHT22;10145;49.152;9.282;2022-07-23T10:49:41;26.10;99.90
19968;DHT22;10145;49.152;9.282;2022-07-23T10:52:23;26.30;99.90
19968;DHT22;10145;49.152;9.282;2022-07-23T10:54:51;26.50;99.90
19968;DHT22;10145;49.152;9.282;2022-07-23T10:57:22;26.60;99.90
19968;DHT22;10145;49.152;9.282;2022-07-23T11:02:30;27.10;99.90
19968;DHT22;10145;49.152;9.282;2022-07-23T11:05:00;27.00;99.90
19968;DHT22;10145;49.152;9.282;2022-07-23T11:07:26;27.20;99.90
19968;DHT22;10145;49.152;9.282;2022-07-23T11:09:52;27.50;99.90
19968;DHT22;10145;49.152;9.282;2022-07-23T11:20:17;28.20;99.90
19968;DHT22;10145;49.152;9.282;2022-07-23T11:25:34;28.10;99.90
19968;DHT22;10145;49.152;9.282;2022-07-23T11:28:18;28.10;99.90
19968;DHT22;10145;49.152;9.282;2022-07-23T11:30:46;28.00;99.90
19968;DHT22;10145;49.152;9.282;2022-07-23T11:35:46;27.90;99.90
19968;DHT22;10145;49.152;9.282;2022-07-23T11:38:20;28.20;99.90
19968;DHT22;10145;49.152;9.282;2022-07-23T11:40:51;28.70;99.90
19968;DHT22;10145;49.152;9.282;2022-07-23T11:43:18;28.90;99.90
19968;DHT22;10145;49.152;9.282;2022-07-23T11:45:50;29.40;99.90
19968;DHT22;10145;49.152;9.282;2022-07-23T11:48:34;29.70;99.90
19968;DHT22;10145;49.152;9.282;2022-07-23T11:51:00;29.60;99.90
19968;DHT22;10145;49.152;9.282;2022-07-23T11:53:28;29.10;99.90
19968;DHT22;10145;49.152;9.282;2022-07-23T11:55:57;28.50;98.80
19968;DHT22;10145;49.152;9.282;2022-07-23T11:58:27;28.70;98.70
19968;DHT22;10145;49.152;9.282;2022-07-23T12:00:55;28.70;97.30
19968;DHT22;10145;49.152;9.282;2022-07-23T12:03:20;28.80;92.20
19968;DHT22;10145;49.152;9.282;2022-07-23T12:05:46;28.90;93.70
19968;DHT22;10145;49.152;9.282;2022-07-23T12:08:12;29.20;93.10
19968;DHT22;10145;49.152;9.282;2022-07-23T12:10:43;29.90;90.40
19968;DHT22;10145;49.152;9.282;2022-07-23T12:13:14;30.60;87.10
19968;DHT22;10145;49.152;9.282;2022-07-23T12:15:46;31.20;83.50
19968;DHT22;10145;49.152;9.282;2022-07-23T12:18:24;31.60;78.50
19968;DHT22;10145;49.152;9.282;2022-07-23T12:20:52;31.70;72.50
19968;DHT22;10145;49.152;9.282;2022-07-23T12:23:20;31.80;73.90
19968;DHT22;10145;49.152;9.282;2022-07-23T12:25:47;31.90;72.80
19968;DHT22;10145;49.152;9.282;2022-07-23T12:28:16;32.00;72.70
19968;DHT22;10145;49.152;9.282;2022-07-23T12:30:53;32.00;73.20
19968;DHT22;10145;49.152;9.282;2022-07-23T12:35:48;31.20;75.60
19968;DHT22;10145;49.152;9.282;2022-07-23T12:38:20;31.40;73.10
19968;DHT22;10145;49.152;9.282;2022-07-23T12:40:50;31.30;73.80
19968;DHT22;10145;49.152;9.282;2022-07-23T12:43:40;31.70;71.10
19968;DHT22;10145;49.152;9.282;2022-07-23T12:46:08;31.50;71.50
19968;DHT22;10145;49.152;9.282;2022-07-23T12:51:17;31.80;71.10
19968;DHT22;10145;49.152;9.282;2022-07-23T12:53:49;31.80;70.90
19968;DHT22;10145;49.152;9.282;2022-07-23T12:56:17;31.80;69.70
19968;DHT22;10145;49.152;9.282;2022-07-23T12:58:44;31.50;69.80
19968;DHT22;10145;49.152;9.282;2022-07-23T13:06:26;31.70;70.70
19968;DHT22;10145;49.152;9.282;2022-07-23T13:08:52;32.10;70.70
19968;DHT22;10145;49.152;9.282;2022-07-23T13:11:17;32.40;67.20
19968;DHT22;10145;49.152;9.282;2022-07-23T13:13:43;32.40;65.70
19968;DHT22;10145;49.152;9.282;2022-07-23T13:16:09;32.60;65.40
19968;DHT22;10145;49.152;9.282;2022-07-23T13:18:34;32.90;66.00
19968;DHT22;10145;49.152;9.282;2022-07-23T13:21:00;32.70;65.90
19968;DHT22;10145;49.152;9.282;2022-07-23T13:23:26;32.70;65.70
19968;DHT22;10145;49.152;9.282;2022-07-23T13:25:51;33.20;64.50
19968;DHT22;10145;49.152;9.282;2022-07-23T13:28:18;33.10;63.60
19968;DHT22;10145;49.152;9.282;2022-07-23T13:30:45;32.70;65.70
19968;DHT22;10145;49.152;9.282;2022-07-23T13:33:11;32.70;63.60
19968;DHT22;10145;49.152;9.282;2022-07-23T13:35:37;32.90;62.60
19968;DHT22;10145;49.152;9.282;2022-07-23T13:38:04;33.80;61.20
19968;DHT22;10145;49.152;9.282;2022-07-23T13:40:30;34.40;62.20
19968;DHT22;10145;49.152;9.282;2022-07-23T13:42:55;34.60;59.20
19968;DHT22;10145;49.152;9.282;2022-07-23T13:45:21;35.10;61.00
19968;DHT22;10145;49.152;9.282;2022-07-23T13:47:47;36.00;58.90
19968;DHT22;10145;49.152;9.282;2022-07-23T13:50:12;35.70;59.20
19968;DHT22;10145;49.152;9.282;2022-07-23T13:52:38;34.20;57.90
19968;DHT22;10145;49.152;9.282;2022-07-23T13:55:05;33.70;60.20
19968;DHT22;10145;49.152;9.282;2022-07-23T13:57:33;33.50;61.10
19968;DHT22;10145;49.152;9.282;2022-07-23T13:59:58;34.50;58.70
19968;DHT22;10145;49.152;9.282;2022-07-23T14:02:25;35.20;56.80
19968;DHT22;10145;49.152;9.282;2022-07-23T14:04:51;35.80;56.70
19968;DHT22;10145;49.152;9.282;2022-07-23T14:07:17;36.40;55.30
19968;DHT22;10145;49.152;9.282;2022-07-23T14:09:43;37.40;53.90
19968;DHT22;10145;49.152;9.282;2022-07-23T14:12:08;37.40;52.90
19968;DHT22;10145;49.152;9.282;2022-07-23T14:14:35;37.80;51.50
19968;DHT22;10145;49.152;9.282;2022-07-23T14:17:00;37.80;51.20
19968;DHT22;10145;49.152;9.282;2022-07-23T14:19:26;38.60;51.80
19968;DHT22;10145;49.152;9.282;2022-07-23T14:21:52;39.50;50.40
19968;DHT22;10145;49.152;9.282;2022-07-23T14:24:18;39.70;49.90
19968;DHT22;10145;49.152;9.282;2022-07-23T14:26:43;39.90;49.30
19968;DHT22;10145;49.152;9.282;2022-07-23T14:29:09;39.20;49.20
19968;DHT22;10145;49.152;9.282;2022-07-23T14:31:34;38.20;52.30
19968;DHT22;10145;49.152;9.282;2022-07-23T14:34:00;37.20;51.70
19968;DHT22;10145;49.152;9.282;2022-07-23T14:36:26;36.60;54.20
19968;DHT22;10145;49.152;9.282;2022-07-23T14:38:52;36.70;54.50
19968;DHT22;10145;49.152;9.282;2022-07-23T14:41:18;37.20;55.40
19968;DHT22;10145;49.152;9.282;2022-07-23T14:43:44;37.70;52.90
19968;DHT22;10145;49.152;9.282;2022-07-23T14:46:11;38.40;51.10
19968;DHT22;10145;49.152;9.282;2022-07-23T14:48:37;38.60;50.00
19968;DHT22;10145;49.152;9.282;2022-07-23T14:51:03;39.10;50.00
19968;DHT22;10145;49.152;9.282;2022-07-23T14:53:29;39.50;48.40
19968;DHT22;10145;49.152;9.282;2022-07-23T14:55:55;39.60;47.30
19968;DHT22;10145;49.152;9.282;2022-07-23T14:58:22;38.50;48.80
19968;DHT22;10145;49.152;9.282;2022-07-23T15:00:48;38.50;50.00
19968;DHT22;10145;49.152;9.282;2022-07-23T15:03:14;39.30;48.10
19968;DHT22;10145;49.152;9.282;2022-07-23T15:05:40;39.10;47.60
19968;DHT22;10145;49.152;9.282;2022-07-23T15:08:05;38.50;49.30
19968;DHT22;10145;49.152;9.282;2022-07-23T15:10:31;38.80;48.70
19968;DHT22;10145;49.152;9.282;2022-07-23T15:12:56;39.20;50.40
19968;DHT22;10145;49.152;9.282;2022-07-23T15:15:22;40.60;46.70
19968;DHT22;10145;49.152;9.282;2022-07-23T15:17:47;40.80;46.50
19968;DHT22;10145;49.152;9.282;2022-07-23T15:20:13;41.80;44.50
19968;DHT22;10145;49.152;9.282;2022-07-23T15:22:39;40.80;44.50
19968;DHT22;10145;49.152;9.282;2022-07-23T15:25:05;37.90;47.90
19968;DHT22;10145;49.152;9.282;2022-07-23T15:27:31;35.40;52.00
19968;DHT22;10145;49.152;9.282;2022-07-23T15:29:56;36.30;53.80
19968;DHT22;10145;49.152;9.282;2022-07-23T15:32:22;37.90;49.80
19968;DHT22;10145;49.152;9.282;2022-07-23T15:34:50;39.50;48.60
19968;DHT22;10145;49.152;9.282;2022-07-23T15:37:15;40.20;47.90
19968;DHT22;10145;49.152;9.282;2022-07-23T15:39:41;40.90;46.60
19968;DHT22;10145;49.152;9.282;2022-07-23T15:42:07;41.10;44.90
19968;DHT22;10145;49.152;9.282;2022-07-23T15:44:32;41.40;44.30
19968;DHT22;10145;49.152;9.282;2022-07-23T15:46:58;41.10;46.10
19968;DHT22;10145;49.152;9.282;2022-07-23T15:49:23;41.60;46.40
19968;DHT22;10145;49.152;9.282;2022-07-23T15:51:49;40.90;44.50
19968;DHT22;10145;49.152;9.282;2022-07-23T15:54:14;39.20;47.70
19968;DHT22;10145;49.152;9.282;2022-07-23T15:56:40;39.30;48.80
19968;DHT22;10145;49.152;9.282;2022-07-23T15:59:08;39.90;48.90
19968;DHT22;10145;49.152;9.282;2022-07-23T16:01:33;40.60;48.10
19968;DHT22;10145;49.152;9.282;2022-07-23T16:03:59;40.80;46.70
19968;DHT22;10145;49.152;9.282;2022-07-23T16:06:26;40.10;45.90
19968;DHT22;10145;49.152;9.282;2022-07-23T16:08:51;39.00;49.10
19968;DHT22;10145;49.152;9.282;2022-07-23T16:11:17;36.90;51.50
19968;DHT22;10145;49.152;9.282;2022-07-23T16:13:43;34.90;53.90
19968;DHT22;10145;49.152;9.282;2022-07-23T16:16:09;33.70;56.80
19968;DHT22;10145;49.152;9.282;2022-07-23T16:18:34;33.30;58.00
19968;DHT22;10145;49.152;9.282;2022-07-23T16:21:00;32.50;60.80
19968;DHT22;10145;49.152;9.282;2022-07-23T16:23:25;33.30;59.10
19968;DHT22;10145;49.152;9.282;2022-07-23T16:25:51;33.90;57.60
19968;DHT22;10145;49.152;9.282;2022-07-23T16:28:17;35.40;55.00
19968;DHT22;10145;49.152;9.282;2022-07-23T16:30:42;36.10;53.30
19968;DHT22;10145;49.152;9.282;2022-07-23T16:33:08;34.70;55.90
19968;DHT22;10145;49.152;9.282;2022-07-23T16:35:35;34.60;55.70
19968;DHT22;10145;49.152;9.282;2022-07-23T16:38:00;34.90;55.00
19968;DHT22;10145;49.152;9.282;2022-07-23T16:40:27;34.90;54.90
19968;DHT22;10145;49.152;9.282;2022-07-23T16:42:53;35.30;54.20
19968;DHT22;10145;49.152;9.282;2022-07-23T16:45:19;35.10;54.80
19968;DHT22;10145;49.152;9.282;2022-07-23T16:47:46;34.10;56.00
19968;DHT22;10145;49.152;9.282;2022-07-23T16:50:12;33.20;57.90
19968;DHT22;10145;49.152;9.282;2022-07-23T16:52:38;32.50;58.60
19968;DHT22;10145;49.152;9.282;2022-07-23T16:55:05;32.00;59.50
19968;DHT22;10145;49.152;9.282;2022-07-23T16:57:30;31.80;61.00
19968;DHT22;10145;49.152;9.282;2022-07-23T16:59:56;31.40;60.50
19968;DHT22;10145;49.152;9.282;2022-07-23T17:02:22;31.10;62.50
19968;DHT22;10145;49.152;9.282;2022-07-23T17:04:47;30.70;63.90
19968;DHT22;10145;49.152;9.282;2022-07-23T17:07:13;30.40;63.90
19968;DHT22;10145;49.152;9.282;2022-07-23T17:09:38;30.30;65.70
19968;DHT22;10145;49.152;9.282;2022-07-23T17:12:04;30.10;65.80
19968;DHT22;10145;49.152;9.282;2022-07-23T17:14:30;29.80;65.80
19968;DHT22;10145;49.152;9.282;2022-07-23T17:16:56;29.50;67.00
19968;DHT22;10145;49.152;9.282;2022-07-23T17:19:21;29.50;67.80
19968;DHT22;10145;49.152;9.282;2022-07-23T17:21:47;29.60;67.80
19968;DHT22;10145;49.152;9.282;2022-07-23T17:24:13;29.50;68.90
19968;DHT22;10145;49.152;9.282;2022-07-23T17:26:39;29.40;69.40
19968;DHT22;10145;49.152;9.282;2022-07-23T17:29:05;29.40;68.20
19968;DHT22;10145;49.152;9.282;2022-07-23T17:31:30;29.30;68.20
19968;DHT22;10145;49.152;9.282;2022-07-23T17:33:56;29.30;69.20
19968;DHT22;10145;49.152;9.282;2022-07-23T17:36:22;29.30;68.20
19968;DHT22;10145;49.152;9.282;2022-07-23T17:38:49;29.20;68.50
19968;DHT22;10145;49.152;9.282;2022-07-23T17:41:15;29.30;68.60
19968;DHT22;10145;49.152;9.282;2022-07-23T17:43:40;29.20;68.60
19968;DHT22;10145;49.152;9.282;2022-07-23T17:46:06;28.80;69.20
19968;DHT22;10145;49.152;9.282;2022-07-23T17:48:31;28.50;71.00
19968;DHT22;10145;49.152;9.282;2022-07-23T17:50:57;28.20;71.90
19968;DHT22;10145;49.152;9.282;2022-07-23T17:53:24;27.90;73.20
19968;DHT22;10145;49.152;9.282;2022-07-23T17:55:51;27.70;73.50
19968;DHT22;10145;49.152;9.282;2022-07-23T17:58:17;27.60;76.90
19968;DHT22;10145;49.152;9.282;2022-07-23T18:00:42;27.30;75.40
19968;DHT22;10145;49.152;9.282;2022-07-23T18:03:08;27.20;75.40
19968;DHT22;10145;49.152;9.282;2022-07-23T18:05:34;27.10;78.10
19968;DHT22;10145;49.152;9.282;2022-07-23T18:08:00;27.00;78.30
19968;DHT22;10145;49.152;9.282;2022-07-23T18:10:28;26.90;78.30
19968;DHT22;10145;49.152;9.282;2022-07-23T18:12:53;26.80;78.10
19968;DHT22;10145;49.152;9.282;2022-07-23T18:15:19;26.80;78.30
19968;DHT22;10145;49.152;9.282;2022-07-23T18:17:44;26.70;78.90
19968;DHT22;10145;49.152;9.282;2022-07-23T18:20:10;26.60;78.50
19968;DHT22;10145;49.152;9.282;2022-07-23T18:22:37;26.60;78.60
19968;DHT22;10145;49.152;9.282;2022-07-23T18:25:04;26.60;80.30
19968;DHT22;10145;49.152;9.282;2022-07-23T18:27:30;26.50;79.50
19968;DHT22;10145;49.152;9.282;2022-07-23T18:29:56;26.40;80.40
19968;DHT22;10145;49.152;9.282;2022-07-23T18:32:22;26.30;82.80
19968;DHT22;10145;49.152;9.282;2022-07-23T18:34:48;26.20;82.60
19968;DHT22;10145;49.152;9.282;2022-07-23T18:37:13;26.10;81.00
19968;DHT22;10145;49.152;9.282;2022-07-23T18:39:39;25.90;81.40
19968;DHT22;10145;49.152;9.282;2022-07-23T18:42:06;25.80;83.30
19968;DHT22;10145;49.152;9.282;2022-07-23T18:44:34;25.70;84.50
19968;DHT22;10145;49.152;9.282;2022-07-23T18:46:59;25.60;84.90
19968;DHT22;10145;49.152;9.282;2022-07-23T18:49:25;25.50;86.00
19968;DHT22;10145;49.152;9.282;2022-07-23T18:51:50;25.30;86.40
19968;DHT22;10145;49.152;9.282;2022-07-23T18:54:16;25.20;87.60
19968;DHT22;10145;49.152;9.282;2022-07-23T18:56:41;25.00;87.60
19968;DHT22;10145;49.152;9.282;2022-07-23T18:59:07;24.90;88.80
19968;DHT22;10145;49.152;9.282;2022-07-23T19:01:33;24.80;88.80
19968;DHT22;10145;49.152;9.282;2022-07-23T19:03:59;24.50;89.80
19968;DHT22;10145;49.152;9.282;2022-07-23T19:06:25;24.40;90.00
19968;DHT22;10145;49.152;9.282;2022-07-23T19:08:52;24.30;90.50
19968;DHT22;10145;49.152;9.282;2022-07-23T19:11:17;24.20;90.60
19968;DHT22;10145;49.152;9.282;2022-07-23T19:13:43;23.90;90.60
19968;DHT22;10145;49.152;9.282;2022-07-23T19:16:09;23.90;90.90
19968;DHT22;10145;49.152;9.282;2022-07-23T19:18:35;23.70;91.20
19968;DHT22;10145;49.152;9.282;2022-07-23T19:21:00;23.60;91.70
19968;DHT22;10145;49.152;9.282;2022-07-23T19:23:26;23.50;92.00
19968;DHT22;10145;49.152;9.282;2022-07-23T19:25:52;23.50;92.60
19968;DHT22;10145;49.152;9.282;2022-07-23T19:28:18;23.30;92.90
19968;DHT22;10145;49.152;9.282;2022-07-23T19:30:43;23.20;93.30
19968;DHT22;10145;49.152;9.282;2022-07-23T19:33:09;23.10;93.40
19968;DHT22;10145;49.152;9.282;2022-07-23T19:35:34;23.10;93.80
19968;DHT22;10145;49.152;9.282;2022-07-23T19:38:00;23.00;93.80
19968;DHT22;10145;49.152;9.282;2022-07-23T19:40:25;23.00;94.30
19968;DHT22;10145;49.152;9.282;2022-07-23T19:42:51;22.80;94.50
19968;DHT22;10145;49.152;9.282;2022-07-23T19:45:17;22.80;94.60
19968;DHT22;10145;49.152;9.282;2022-07-23T19:47:43;22.70;94.60
19968;DHT22;10145;49.152;9.282;2022-07-23T19:50:13;22.70;94.90
19968;DHT22;10145;49.152;9.282;2022-07-23T19:52:39;22.70;95.10
19968;DHT22;10145;49.152;9.282;2022-07-23T19:55:07;22.70;95.10
19968;DHT22;10145;49.152;9.282;2022-07-23T19:57:34;22.70;94.90
19968;DHT22;10145;49.152;9.282;2022-07-23T20:00:00;22.80;95.20
19968;DHT22;10145;49.152;9.282;2022-07-23T20:02:26;22.80;96.10
19968;DHT22;10145;49.152;9.282;2022-07-23T20:04:51;22.80;95.90
19968;DHT22;10145;49.152;9.282;2022-07-23T20:07:17;22.80;95.70
19968;DHT22;10145;49.152;9.282;2022-07-23T20:09:43;22.90;95.90
19968;DHT22;10145;49.152;9.282;2022-07-23T20:12:08;22.80;96.00